Airfield :
LOGIN :

Register | Disclaimer

   EN    FR    IT 

 










Legend :    VFR   Marginal VFR   IFR   Intensive IFR   Very Intensive IFR
Visi :
Ceiling :
>= 8 km
>= 3000ft
5 to 8 km
1000 to 3000 ft
1500m to 5 km
500 to 1000 ft
800 to 1500m
200 to 500 ft
< 800m
< 200 ft
Symbols :   Thunderstorms  Fog  Heavy snow  Heavy precipitations  Wind > 20 kt
SIGMETs :     Misc.  Thunderstorms  Icing  Turbulence  Mountain Waves  Volcanic Ashes







- Airport Elevation : 1989 ft
- IATA code : KLV


LKKV - Karlovy Vary

CURRENT METAR :
  • 121200Z 32007KT 9999 FEW020 M01/M02 Q1019 R29/29//95

EXPIRED METARs :
  • 121130Z 31004KT 280V350 9999 FEW022 M00/M02 Q1019 R29/29//95
  • 121100Z 30005KT 9999 SCT020 M00/M01 Q1019 R29/29//95
  • 121030Z 28006KT 250V310 9999 SCT020 M00/M01 Q1019 R29/592091
  • 121000Z 28005KT 250V310 9999 SCT018 00/M01 Q1019 R29/592091
  • 120930Z VRB02KT 9999 BKN018 M01/M02 Q1020 R29/592091

TAF TAF LKKV
Valid from the 12 at 12:00 until the 13 at 18:00 UTC


121100Z 1212/1318 28005KT 9999 SCT020
TEMPO 1212/1307 VRB02KT 4000 -SN BR BKN010
PROB30
TEMPO 1223/1306 2000 BR BKN005
BECMG 1307/1309 05005KT
No reported NOTAMs for that airfield.



MET'MAP, your aeronautical weather chart ! - Copyright ORBIFLY December 2007 - Disclaimer

ORBIFLY MET'MAP TEAM :

Programming & Development : Alexandra Zaïnal
Concept & Development : Baudouin d'Aumeries
Co-Development & Prog : Marc-Olivier Méhu
Technical & hardware support : Manuel Goepfert

Contact : metmap@orbifly.com




SOURCES & CREDITS :

   NOAA